KACK/ACK METAR and TAF weather

Enter ICAO airport designator
Station Type Date Time Source
KACK METAR 2019/12/11 16:53 UTC NOAA

KACK 111653Z 32009KT 1SM -SN BR VV007 01/M01 A3022 RMK AO2 SLP233 P0000 T00061011 RVRNO


Station Type Date Time Source
KACK Decoded METAR 2019/12/11 16:53 UTC NOAA

NANTUCKET MEMORIAL AIRPORT, MA, United States (KACK) 41-15N 70-04W 16M
Dec 11, 2019 - 11:53 AM EST / 2019.12.11 1653 UTC
Wind: from the NW (320 degrees) at 10 MPH (9 KT):0
Visibility: 1 mile(s):0
Sky conditions: obscured
Weather: light snow; mist
Precipitation last hour: A trace
Temperature: 33.1 F (0.6 C)
Windchill: 24 F (-4 C):1
Dew Point: 30.0 F (-1.1 C)
Relative Humidity: 88%
Pressure (altimeter): 30.22 in. Hg (1023 hPa)
ob: KACK 111653Z 32009KT 1SM -SN BR VV007 01/M01 A3022 RMK AO2 SLP233 P0000 T00061011 RVRNO
cycle: 17

Station Type Date Time Source
KACK TAF 2019/12/11 18:34 UTC NOAA

TAF KACK 111732Z 1118/1218 33011KT 4SM -SN OVC008
FM111900 32010KT P6SM BKN020
FM112000 31009KT P6SM SCT025
FM120100 29016G26KT P6SM SCT200
FM121000 32018G28KT P6SM SKC
FM121600 34012G22KT P6SM SKC

Example: see airport list